Flight Track Log - Related Links

Times and Time Zones

All times are in EDT time to prevent confusion due to time zone crossing. See the FLG3729 flight status page for this flight to view local times or setup timezone preferences in your user account.

Time Position Orientation Groundspeed Altitude Reporting Facility
EDT Latitude Longitude Course Direction KTS MPH feet Rate Location/Type
Sat 05:57:40 42.7611 -73.8061 283° West 139 160 1,400  Level Boston Center
Sat 05:59:28 42.8436 -73.8758 328° Northwest 237 273 6,100 2,821 Climbing Boston Center
Sat 06:00:00 42.8090 -74.1624 281° West  Level FlightAware Approximate
Sat 06:00:28 42.8844 -73.9503 307° West 237 273 9,300  Level Boston Center
Sat 06:01:00 42.8268 -74.2875 281° West  Level FlightAware Approximate
Sat 06:01:28 42.9311 -74.0367 306° West 276 318 11,100  Level Boston Center
Sat 06:02:00 42.8465 -74.4122 283° West  Level FlightAware Approximate
Sat 06:02:28 42.9650 -74.1453 293° West 293 337 12,600  Level Boston Center
Sat 06:03:28 42.9756 -74.2733 276° West 332 382 13,700 1,000 Climbing Boston Center
Sat 06:04:28 42.9897 -74.4100 278° West 360 414 14,600 1,000 Climbing Boston Center
Sat 06:05:28 43.0039 -74.5525 278° West 376 433 15,700 1,000 Climbing Boston Center
Sat 06:06:28 43.0181 -74.6919 278° West 376 433 16,600 900 Climbing Boston Center
Sat 06:07:28 43.0300 -74.8147 278° West 376 433 17,500 700 Climbing Boston Center
Sat 06:08:28 43.0458 -74.9544 279° West 371 427 18,000 750 Climbing Boston Center
Sat 06:09:28 43.0592 -75.0972 277° West 371 427 19,000 1,000 Climbing Boston Center
Sat 06:10:28 43.0728 -75.2342 278° West 371 427 20,000 1,000 Climbing Boston Center
Sat 06:11:28 43.0858 -75.3769 277° West 371 427 21,000 1,000 Climbing Boston Center
Sat 06:12:28 43.1006 -75.5256 278° West 383 441 22,000 1,000 Climbing Boston Center
Sat 06:13:28 43.1131 -75.6742 277° West 394 453 23,000 1,038 Climbing Boston Center
Sat 06:15:33 43.1431 -76.0072 277° West 400 460 25,200 1,070 Climbing Cleveland Center
Sat 06:16:33 43.1572 -76.1572 277° West 406 467 26,300 1,000 Climbing Cleveland Center
Sat 06:17:33 43.1525 -76.3083 268° West 401 461 27,200 800 Climbing Cleveland Center
Sat 06:18:33 43.1392 -76.4603 263° West 406 467 27,900 650 Climbing Cleveland Center
Sat 06:19:33 43.1278 -76.6144 264° West 406 467 28,500 550 Climbing Cleveland Center
Sat 06:20:33 43.1122 -76.7692 262° West 411 473 29,000 500 Climbing Cleveland Center
Sat 06:21:33 43.0981 -76.9122 262° West 416 479 29,500 500 Climbing Cleveland Center
Sat 06:22:33 43.0842 -77.0694 263° West 416 479 30,000 250 Climbing Cleveland Center
Sat 06:23:33 43.0700 -77.2267 263° West 416 479 30,000  Level Cleveland Center
Sat 06:24:33 43.0539 -77.3867 262° West 422 486 30,000  Level Cleveland Center
Sat 06:25:33 43.0394 -77.5494 263° West 429 494 30,000  Level Cleveland Center
Sat 06:26:33 43.0247 -77.7119 263° West 434 499 30,000  Level Cleveland Center
Sat 06:27:33 43.0081 -77.8775 262° West 434 499 30,000  Level Cleveland Center
Sat 06:28:33 42.9889 -78.0458 261° West 441 507 30,000  Level Cleveland Center
Sat 06:29:33 42.9672 -78.2083 260° West 446 513 30,000  Level Cleveland Center
Sat 06:30:33 42.9478 -78.3736 261° West 446 513 30,000  Level Cleveland Center
Sat 06:31:33 42.9278 -78.5417 261° West 452 520 30,000  Level Cleveland Center
Sat 06:32:33 42.9056 -78.7125 260° West 452 520 30,000  Level Cleveland Center
Sat 06:33:33 42.8853 -78.8775 261° West 452 520 30,000  Level Cleveland Center
Sat 06:34:33 42.8628 -79.0453 260° West 452 520 30,000  Level Cleveland Center
Sat 06:35:33 42.8378 -79.2128 259° West 447 514 30,000  Level Cleveland Center
Sat 06:36:33 42.8167 -79.3803 260° West 447 514 30,000  Level Cleveland Center
Sat 06:37:33 42.7953 -79.5447 260° West 447 514 30,000  Level Cleveland Center
Sat 06:38:33 42.7736 -79.7119 260° West 447 514 30,000  Level Cleveland Center
Sat 06:39:33 42.7519 -79.8792 260° West 447 514 30,000  Level Cleveland Center
Sat 06:40:33 42.7403 -80.0631 265° West 454 522 30,000  Level Cleveland Center
Sat 06:41:33 42.7347 -80.2300 267° West 449 517 30,000  Level Cleveland Center
Sat 06:42:33 42.7289 -80.3967 267° West 443 510 30,000  Level Cleveland Center
Sat 06:43:33 42.7208 -80.5633 266° West 438 504 30,000 -350 Level Cleveland Center
Sat 06:44:33 42.7122 -80.7272 266° West 439 505 29,300 -1,100 Descending Cleveland Center
Sat 06:45:33 42.7058 -80.8911 267° West 439 505 27,800 -1,450 Descending Cleveland Center
Sat 06:46:33 42.6886 -81.0492 262° West 439 505 26,400 -1,400 Descending Cleveland Center
Sat 06:47:33 42.6711 -81.2100 262° West 432 497 25,000 -1,200 Descending Cleveland Center
Sat 06:48:33 42.6536 -81.3511 260° West 427 491 24,000 -850 Descending Cleveland Center
Sat 06:49:33 42.6358 -81.5089 261° West 427 491 23,300 -1,300 Descending Cleveland Center
Sat 06:50:33 42.6156 -81.6694 260° West 432 497 21,400 -1,900 Descending Cleveland Center
Sat 06:51:33 42.5931 -81.8439 260° West 432 497 19,500 -1,650 Descending Cleveland Center
Sat 06:52:33 42.5744 -81.9986 261° West 432 497 18,100 -1,600 Descending Cleveland Center
Sat 06:53:33 42.5581 -82.1447 261° West 416 479 16,300 -1,817 Descending Cleveland Center
Sat 06:54:22 42.5458 -82.2600 262° West 384 442 14,800 -1,864 Descending Cleveland Center
Sat 06:55:16 42.5294 -82.3919 260° West 376 433 13,100 -1,775 Descending Cleveland Center
Sat 06:55:33 42.5225 -82.4256 254° West 388 447 12,700 -1,082 Descending Cleveland Center
Sat 06:56:17 42.5125 -82.5294 263° West 373 429 12,000 -700 Descending Cleveland Center
Sat 06:56:33 42.5014 -82.5631 246° West 382 440 12,000 -197 Level Cleveland Center
Sat 06:57:18 42.4708 -82.6550 246° West 360 414 11,800 -400 Descending Cleveland Center
Sat 06:57:33 42.4597 -82.6828 242° Southwest 368 423 11,600 -1,000 Descending Cleveland Center
Sat 06:58:18 42.4333 -82.7578 245° Southwest 279 321 10,800 -1,000 Descending Cleveland Center
Sat 06:58:33 42.4244 -82.7856 247° West 337 388 10,600 -1,672 Descending Cleveland Center
Sat 06:59:19 42.4231 -82.8558 268° West 261 300 9,100 -1,800 Descending Cleveland Center
Sat 07:00:33 42.4167 -82.9767 266° West 272 313 7,000 -1,465 Descending Cleveland Center
Sat 07:01:26 42.4400 -83.0506 293° West 236 272 6,000 -500 Descending Cleveland Center
Sat 07:02:33 42.4569 -83.1331 286° West 234 269 6,000 -283 Level Cleveland Center
Sat 07:03:33 42.4286 -83.1853 234° Southwest 186 214 5,400 -850 Descending Cleveland Center
Sat 07:04:40 42.3778 -83.2197 207° Southwest 170 196 4,200 -983 Descending Cleveland Center
Sat 07:05:29 42.3417 -83.2492 211° Southwest 178 205 3,500 -873 Descending Cleveland Center
Sat 07:06:30 42.3014 -83.2756 206° Southwest 159 183 2,600 -885 Descending Cleveland Center

Login

Don't have an account? Register now (free) for customized features, flight alerts, and more!